createdAt,value
2023-01-02T07:39:47.623Z,98620.03
2023-01-02T07:44:49.197Z,98636.19
2023-01-02T07:49:50.768Z,98629.25
2023-01-02T07:54:52.387Z,98644.94
2023-01-02T08:00:26.481Z,98638.78
2023-01-02T08:05:28.912Z,98621.09
2023-01-02T08:10:30.634Z,98636.09
2023-01-02T08:15:33.194Z,98608.28
2023-01-02T08:20:34.858Z,98614.41
2023-01-02T08:25:36.471Z,98512.63
2023-01-02T08:30:40.736Z,98627.66
2023-01-02T08:35:42.495Z,98587.69
2023-01-02T08:40:44.352Z,98572.75
2023-01-02T08:45:46.145Z,98550.28
2023-01-02T08:50:48.446Z,98620.06
2023-01-02T08:55:50.753Z,98628.50
2023-01-02T09:00:52.715Z,98623.94
2023-01-02T09:05:55.473Z,98517.69
2023-01-02T09:10:57.111Z,98566.28
2023-01-02T09:15:58.827Z,98530.59
2023-01-02T09:21:00.713Z,98580.22
2023-01-02T09:26:04.611Z,98561.91
2023-01-02T09:31:12.089Z,98577.63
2023-01-02T09:36:18.766Z,98620.03
2023-01-02T09:41:40.635Z,98636.69
2023-01-02T09:46:42.484Z,98633.03
2023-01-02T09:51:45.330Z,98535.41
2023-01-02T09:56:52.234Z,98621.50
2023-01-02T10:02:07.398Z,98553.47
2023-01-02T10:07:23.335Z,98604.19
2023-01-02T10:12:36.587Z,98606.31
2023-01-02T10:17:44.757Z,98595.78
2023-01-02T10:23:01.415Z,98584.41
2023-01-02T10:28:07.153Z,98576.41
2023-01-02T10:33:37.117Z,98551.84
2023-01-02T10:38:39.520Z,98563.53
2023-01-02T10:43:41.130Z,98554.19
2023-01-02T10:48:52.215Z,98550.38
2023-01-02T10:54:00.952Z,98532.63
2023-01-02T10:59:03.573Z,98537.69
2023-01-02T11:04:05.178Z,98567.28
2023-01-02T11:09:27.085Z,98553.09
2023-01-02T11:14:34.472Z,98522.66
2023-01-02T11:19:44.963Z,98509.81
2023-01-02T11:24:46.552Z,98545.16
2023-01-02T11:29:50.656Z,98435.38
2023-01-02T11:35:02.787Z,98545.66
2023-01-02T11:40:24.484Z,98471.34
2023-01-02T11:45:27.048Z,98498.09
2023-01-02T11:50:35.198Z,98523.16
2023-01-02T11:55:45.322Z,98484.78
2023-01-02T12:00:52.015Z,98489.06
2023-01-02T12:06:13.451Z,98515.44
2023-01-02T12:11:24.796Z,98505.78
2023-01-02T12:16:52.581Z,98502.59
2023-01-02T12:21:54.259Z,98506.94
2023-01-02T12:27:01.325Z,98513.50
2023-01-02T12:32:32.228Z,98504.22
2023-01-02T12:37:39.737Z,98515.25
2023-01-02T12:43:00.053Z,98514.53
2023-01-02T12:48:01.735Z,98496.84
2023-01-02T12:53:37.253Z,98473.75
2023-01-02T12:59:09.614Z,98491.66
2023-01-02T13:05:15.404Z,98489.66
2023-01-02T13:10:20.468Z,98490.59
2023-01-02T13:15:30.903Z,98504.63
2023-01-02T13:20:56.754Z,98462.72
2023-01-02T13:26:08.879Z,98421.81
2023-01-02T13:31:44.753Z,98459.88
2023-01-02T13:36:42.899Z,98451.69
2023-01-02T13:42:12.128Z,98466.19
2023-01-02T13:47:25.546Z,98479.69
2023-01-02T13:52:29.163Z,98444.25
2023-01-02T13:57:32.670Z,98418.38
2023-01-02T14:09:19.576Z,98482.47
2023-01-02T14:14:35.972Z,98537.13
2023-01-02T14:19:38.446Z,98578.97
2023-01-02T14:24:49.326Z,98570.75
2023-01-02T14:29:53.542Z,98584.59
2023-01-02T14:34:58.643Z,98574.22
2023-01-02T14:40:23.484Z,98535.91
2023-01-02T14:45:28.290Z,98570.44
2023-01-02T14:50:33.556Z,98603.09
2023-01-02T14:55:42.037Z,98588.31
2023-01-02T15:00:47.441Z,98574.72
2023-01-02T15:06:25.078Z,98540.72
2023-01-02T15:11:45.436Z,98619.78
2023-01-02T15:16:52.559Z,98602.47
2023-01-02T15:21:55.569Z,98567.34
2023-01-02T15:27:31.724Z,98560.53
2023-01-02T15:32:34.052Z,98623.22
2023-01-02T15:37:44.793Z,98613.81
2023-01-02T15:43:06.022Z,98674.72
2023-01-02T15:48:08.140Z,98675.66
2023-01-02T15:53:26.200Z,98664.28
2023-01-02T15:58:30.702Z,98714.78
2023-01-02T16:04:00.673Z,98673.72
2023-01-02T16:09:02.512Z,98718.97
2023-01-02T16:14:19.132Z,98672.59
2023-01-02T16:19:54.675Z,98740.91
2023-01-02T16:25:19.382Z,98751.84
2023-01-02T16:30:23.742Z,98752.84
2023-01-02T16:35:29.757Z,98768.16
2023-01-02T16:40:58.883Z,98765.59
2023-01-02T16:45:53.290Z,98675.50
2023-01-02T16:50:56.876Z,98708.69
2023-01-02T16:55:59.284Z,98683.41
2023-01-02T17:01:01.458Z,98792.78
2023-01-02T17:06:10.081Z,98730.25
2023-01-02T17:11:17.609Z,98812.03
2023-01-02T17:16:19.838Z,98753.59
2023-01-02T17:21:22.536Z,98817.69
2023-01-02T17:26:26.804Z,98744.09
2023-01-02T17:31:28.579Z,98771.13
2023-01-02T17:36:33.310Z,98778.25
2023-01-02T17:41:34.952Z,98818.56
2023-01-02T17:47:09.519Z,98798.88
2023-01-02T17:51:58.277Z,98833.84
2023-01-02T17:56:59.942Z,98830.53
2023-01-02T18:02:02.429Z,98869.00
2023-01-02T18:07:04.308Z,98865.88
2023-01-02T18:12:06.354Z,98852.25
2023-01-02T18:17:25.473Z,98869.31
2023-01-02T18:22:31.660Z,98883.63
2023-01-02T18:27:35.248Z,98887.97
2023-01-02T18:32:39.493Z,98817.06
2023-01-02T18:37:41.675Z,98827.97
2023-01-02T18:42:49.063Z,98881.47
2023-01-02T18:47:57.031Z,98793.41
2023-01-02T18:52:59.221Z,98817.75
2023-01-02T18:58:09.309Z,98898.16
2023-01-02T19:03:19.242Z,98863.50
2023-01-02T19:08:30.110Z,98917.88
2023-01-02T19:13:34.426Z,98903.72
2023-01-02T19:24:21.696Z,98922.75
2023-01-02T19:29:29.756Z,98925.28
2023-01-02T19:34:34.492Z,98935.38
2023-01-02T19:39:40.132Z,98930.66
2023-01-02T19:44:41.858Z,98943.16
2023-01-02T19:49:43.807Z,98945.97
2023-01-02T19:54:46.599Z,98946.50
2023-01-02T19:59:49.889Z,98958.28
2023-01-02T20:04:53.861Z,98960.19
2023-01-02T20:09:55.457Z,98953.50
2023-01-02T20:14:58.843Z,98955.88
2023-01-02T20:20:01.194Z,98971.50
2023-01-02T20:25:02.907Z,98967.69
2023-01-02T20:30:05.676Z,98962.91
2023-01-02T20:35:07.999Z,98977.81
2023-01-02T20:40:10.213Z,98974.84
2023-01-02T20:45:12.350Z,98979.28
2023-01-02T20:50:13.956Z,98976.91
2023-01-02T20:55:15.867Z,98986.19
2023-01-02T21:00:18.255Z,98973.22
2023-01-02T21:05:19.919Z,98983.88
2023-01-02T21:10:21.845Z,98974.41
2023-01-02T21:15:42.254Z,98971.31
2023-01-02T21:20:46.730Z,98970.31
2023-01-02T21:25:49.549Z,98972.19
